New Tokyo, Japan

6:58 AM JST on October 22, 2014 (GMT +0900)
New Tokyo International (Narita) | Change Station
CLOSE
Current Station
Airport
Location: New Tokyo,
Elevation: 144 ft
Nearby Weather Stations

Elev 144 ft 35.77 °N, 140.39 °E | Updated 9 minutes ago

Heavy Rain Showers
Heavy Showers Rain Mist
63 °F
Feels Like 63 °F
N
16
Wind Variable Wind from NNE

Today
High -- | Low -- °F
--% Chance of Precip.
Yesterday
High -- | Low -- °F
Precip. -- in
5:50 AM 4:54 PM
Waning Crescent, 4% visible
Pressure 29.86 in
Visibility 2.2 miles
Clouds Few 200 ft
Mostly Cloudy 600 ft
Mostly Cloudy 1500 ft
Dew Point 61 °F
Humidity 94%
Rainfall 0.00 in
Snow Depth Not available.
UV 0 out of 12
Pollen Not available.
Air Quality Not available.
Flu Activity Not available.
SPECI RJAA 212149Z 03014KT 3500 +SHRA BR FEW002 BKN006 BKN015 17/16 Q1011 RMK 1ST002 5ST006 7CU015 A2987

More Conditions Fewer Conditions

Pressure 29.86 in
Visibility 2.2 miles
Clouds Few 200 ft
Mostly Cloudy 600 ft
Mostly Cloudy 1500 ft
Dew Point 61 °F
Humidity 94%
Rainfall 0.00 in
Snow Depth Not available.
UV 0 out of 12
Pollen Not available.
Air Quality Not available.
Flu Activity Not available.
SPECI RJAA 212149Z 03014KT 3500 +SHRA BR FEW002 BKN006 BKN015 17/16 Q1011 RMK 1ST002 5ST006 7CU015 A2987

More Conditions Fewer Conditions

10-Day Weather Forecast

Almanac

Astronomy

Oct. 22, 2014 Rise Set
Actual Time 5:50 AM JST 4:54 PM JST
Civil Twilight 5:24 AM JST 5:20 PM JST
Nautical Twilight 4:54 AM JST 5:50 PM JST
Astronomical Twilight 4:25 AM JST 6:20 PM JST
Moon 3:59 AM JST (10/22) 3:57 PM JST (10/22)
Length of Visible Light 11h 56m
Length of Day
11h 04m
Tomorrow will be 2m 7s shorter.
Waning Crescent, 4% of the Moon is Illuminated
Oct 21
Waning Crescent
Oct 23
New
Oct 30
First Quarter
Nov 6
Full
Nov 14
Last Quarter

Yesterday's Extremes

Country Highs Country Lows

Community

WunderPhotos

Upload Photos

1,763,785 photos uploaded!

Nearby

Snow Depth

Not available.

Earthquake Activity

City Distance Mag. Time & Date
No recent earthquake activity has been reported nearby.
Minimum magnitude displayed is 2.5.

Coastal Water Temperatures

Place Temperature
No Stations Reporting

Nearby Weather Stations